Time;durP1;ratioP1;P1;durP2;ratioP2;P2;SDS_P1;SDS_P2;PMS_P1;PMS_P2;Temp;Humidity;BMP_temperature;BMP_pressure;BME280_temperature;BME280_humidity;BME280_pressure;Samples;Min_cycle;Max_cycle;Signal;HPM_P1;HPM_P2
2023/06/24 00:03:31;;;;;;;12.60;7.90;;;;;;;15.16;100.00;102413.88;10444656;28;20133;-72
2023/06/24 00:08:36;;;;;;;10.82;7.20;;;;;;;15.08;100.00;102407.59;10438561;28;20876;-70
2023/06/24 00:13:37;;;;;;;15.02;8.77;;;;;;;15.01;100.00;102401.38;10418658;28;20125;-70
2023/06/24 00:18:40;;;;;;;12.00;8.07;;;;;;;14.97;100.00;102405.75;10396719;28;20069;-70
2023/06/24 00:23:43;;;;;;;11.77;8.13;;;;;;;14.91;100.00;102412.25;10393692;28;20041;-70
2023/06/24 00:28:43;;;;;;;13.93;7.53;;;;;;;14.83;100.00;102410.72;10379146;28;20053;-71
2023/06/24 00:33:44;;;;;;;14.70;9.60;;;;;;;14.81;100.00;102400.97;10392903;28;20030;-72
2023/06/24 00:38:44;;;;;;;13.43;8.50;;;;;;;14.77;100.00;102405.31;10392582;28;20523;-70
2023/06/24 00:43:45;;;;;;;16.48;8.63;;;;;;;14.71;100.00;102410.72;10375857;28;20037;-70
2023/06/24 00:48:46;;;;;;;13.65;9.60;;;;;;;14.60;100.00;102405.25;10376039;28;20426;-70
2023/06/24 00:53:50;;;;;;;14.63;8.77;;;;;;;14.60;100.00;102410.78;10409832;28;20076;-70
2023/06/24 00:58:51;;;;;;;11.70;8.38;;;;;;;14.60;100.00;102422.72;10377953;28;20109;-70
2023/06/24 01:03:51;;;;;;;10.73;7.85;;;;;;;14.55;100.00;102422.53;10380914;28;20030;-70
2023/06/24 01:08:56;;;;;;;14.38;8.80;;;;;;;14.48;100.00;102419.91;10415219;28;20042;-70
2023/06/24 01:13:57;;;;;;;16.52;8.88;;;;;;;14.41;100.00;102407.28;10414441;28;20564;-70
2023/06/24 01:19:00;;;;;;;16.83;9.43;;;;;;;14.39;100.00;102417.78;10415918;28;20076;-71
2023/06/24 01:24:06;;;;;;;13.05;8.93;;;;;;;14.33;100.00;102412.09;10400277;28;20406;-70
2023/06/24 01:29:30;;;;;;;14.63;9.73;;;;;;;14.27;100.00;102413.06;10432355;28;20092;-70
2023/06/24 01:34:39;;;;;;;19.33;11.57;;;;;;;14.23;100.00;102406.31;10376565;28;20079;-68
2023/06/24 01:39:57;;;;;;;18.40;11.60;;;;;;;14.27;100.00;102410.28;10389905;28;20034;-70
2023/06/24 01:44:58;;;;;;;21.73;12.38;;;;;;;14.28;100.00;102414.78;10409032;28;20041;-70
2023/06/24 01:49:59;;;;;;;20.02;11.02;;;;;;;14.16;100.00;102386.22;10414971;28;20052;-71
2023/06/24 01:55:00;;;;;;;20.95;12.18;;;;;;;14.22;100.00;102390.81;10413388;28;20040;-71
2023/06/24 02:00:00;;;;;;;23.42;13.30;;;;;;;14.30;100.00;102393.22;10382142;28;20033;-71
2023/06/24 02:05:01;;;;;;;19.13;10.77;;;;;;;13.90;100.00;102338.53;10414931;28;20030;-71
2023/06/24 02:10:02;;;;;;;20.98;11.48;;;;;;;14.21;100.00;102383.56;10413769;28;20068;-69
2023/06/24 02:15:04;;;;;;;19.90;11.40;;;;;;;14.16;100.00;102383.47;10414394;28;20117;-70
2023/06/24 02:20:07;;;;;;;26.55;12.43;;;;;;;14.15;100.00;102390.06;10398030;28;20502;-70
2023/06/24 02:25:08;;;;;;;21.63;11.27;;;;;;;14.18;100.00;102392.38;10414391;28;20041;-71
2023/06/24 02:30:08;;;;;;;23.38;13.45;;;;;;;14.17;100.00;102393.44;10413673;28;20473;-70
2023/06/24 02:35:09;;;;;;;22.42;12.77;;;;;;;14.18;100.00;102385.97;10429566;28;20034;-70
2023/06/24 02:40:10;;;;;;;20.02;12.05;;;;;;;14.11;100.00;102377.78;10396754;28;20040;-70
2023/06/24 02:45:10;;;;;;;20.38;11.45;;;;;;;14.05;100.00;102375.97;10429296;28;20117;-70
2023/06/24 02:50:11;;;;;;;19.55;12.85;;;;;;;14.00;100.00;102378.66;10420507;28;20042;-71
2023/06/24 02:55:11;;;;;;;22.75;12.82;;;;;;;13.98;100.00;102375.28;10409365;28;20029;-71
2023/06/24 03:00:14;;;;;;;19.55;11.82;;;;;;;14.02;100.00;102395.84;10426767;28;20513;-71
2023/06/24 03:05:15;;;;;;;25.10;13.23;;;;;;;14.01;100.00;102394.16;10425452;28;20145;-71
2023/06/24 03:10:15;;;;;;;17.45;10.63;;;;;;;13.98;100.00;102408.50;10401329;28;20759;-69
2023/06/24 03:15:15;;;;;;;22.25;12.20;;;;;;;13.93;100.00;102418.38;10408642;28;20044;-70
2023/06/24 03:20:16;;;;;;;18.98;12.32;;;;;;;13.95;100.00;102414.50;10425447;28;20043;-70
2023/06/24 03:25:16;;;;;;;22.83;12.93;;;;;;;13.94;100.00;102405.34;10426281;28;20505;-71
2023/06/24 03:30:17;;;;;;;23.80;13.98;;;;;;;13.95;100.00;102406.19;10427915;28;20147;-70
2023/06/24 03:35:18;;;;;;;17.52;11.52;;;;;;;13.91;100.00;102400.28;10407974;28;20052;-70
2023/06/24 03:40:18;;;;;;;20.02;12.35;;;;;;;13.95;100.00;102397.88;10410287;28;20089;-71
2023/06/24 03:45:19;;;;;;;22.55;13.40;;;;;;;13.96;100.00;102397.66;10408029;28;20037;-71
2023/06/24 03:50:19;;;;;;;20.67;12.57;;;;;;;13.98;100.00;102397.44;10425754;28;20037;-71
2023/06/24 03:55:20;;;;;;;25.90;15.10;;;;;;;13.99;100.00;102399.09;10409237;28;20053;-71
2023/06/24 04:00:20;;;;;;;23.52;14.20;;;;;;;14.04;100.00;102418.63;10436770;28;20040;-71
2023/06/24 04:05:24;;;;;;;21.85;13.32;;;;;;;14.12;100.00;102410.78;10419922;28;20042;-71
2023/06/24 04:10:25;;;;;;;21.13;13.10;;;;;;;14.13;100.00;102408.84;10439546;28;20436;-71
2023/06/24 04:15:25;;;;;;;22.58;13.90;;;;;;;14.25;100.00;102420.78;10437370;28;20060;-71
2023/06/24 04:20:26;;;;;;;23.13;12.55;;;;;;;14.31;100.00;102408.72;10401449;28;20037;-71
2023/06/24 04:25:26;;;;;;;24.35;14.20;;;;;;;14.35;100.00;102403.56;10420622;28;20033;-71
2023/06/24 04:30:27;;;;;;;17.58;11.65;;;;;;;14.42;100.00;102403.41;10417313;28;20056;-71
2023/06/24 04:35:27;;;;;;;24.55;13.25;;;;;;;14.41;100.00;102394.28;10401980;28;20037;-71
2023/06/24 04:40:28;;;;;;;21.45;13.30;;;;;;;14.49;100.00;102407.75;10400768;28;20037;-71
2023/06/24 04:45:28;;;;;;;23.88;13.85;;;;;;;14.59;100.00;102398.81;10433501;28;20045;-70
2023/06/24 04:50:29;;;;;;;20.30;12.63;;;;;;;14.68;100.00;102413.19;10416690;28;20042;-72
2023/06/24 04:55:31;;;;;;;23.50;12.82;;;;;;;14.77;100.00;102410.84;10419394;28;20026;-71
2023/06/24 05:00:32;;;;;;;23.45;12.23;;;;;;;14.43;100.00;102327.53;10417799;28;20483;-71
2023/06/24 05:05:32;;;;;;;19.30;12.23;;;;;;;14.96;100.00;102404.03;10416834;28;20033;-71
2023/06/24 05:10:33;;;;;;;24.60;14.05;;;;;;;15.09;100.00;102414.03;10416705;28;20048;-70
2023/06/24 05:15:33;;;;;;;18.20;11.07;;;;;;;15.19;100.00;102414.19;10418140;28;20088;-71
2023/06/24 05:20:33;;;;;;;14.95;10.13;;;;;;;15.38;100.00;102400.97;10341657;28;20034;-71
2023/06/24 05:25:35;;;;;;;17.60;9.65;;;;;;;15.52;100.00;102410.66;10375618;28;20084;-71
2023/06/24 05:30:35;;;;;;;15.20;9.82;;;;;;;15.66;100.00;102407.56;10358502;28;20083;-72
2023/06/24 05:35:39;;;;;;;16.42;9.80;;;;;;;15.88;100.00;102402.97;10359059;28;20068;-71
2023/06/24 05:40:40;;;;;;;13.07;9.07;;;;;;;16.01;100.00;102384.28;10375704;28;20033;-72
2023/06/24 05:45:40;;;;;;;14.05;8.93;;;;;;;16.31;100.00;102393.06;10392320;28;20034;-72
2023/06/24 05:50:41;;;;;;;12.50;8.60;;;;;;;16.62;100.00;102393.50;10390338;28;20041;-73
2023/06/24 05:55:41;;;;;;;12.80;8.25;;;;;;;16.89;100.00;102385.25;10397674;28;20029;-72
2023/06/24 06:00:42;;;;;;;14.20;7.93;;;;;;;17.26;100.00;102364.19;10417241;28;20030;-72
2023/06/24 06:05:42;;;;;;;10.57;7.22;;;;;;;17.65;100.00;102366.78;10416407;28;20033;-72
2023/06/24 06:10:43;;;;;;;16.70;7.18;;;;;;;18.11;100.00;102369.94;10415680;28;20036;-72
2023/06/24 06:15:43;;;;;;;11.10;7.45;;;;;;;18.55;100.00;102364.88;10413174;28;20103;-72
2023/06/24 06:20:44;;;;;;;11.00;5.68;;;;;;;18.89;100.00;102363.63;10414338;28;20041;-72
2023/06/24 06:25:44;;;;;;;10.43;6.82;;;;;;;19.21;100.00;102357.03;10416115;28;20037;-74
2023/06/24 06:30:45;;;;;;;11.63;6.68;;;;;;;19.66;100.00;102360.97;10416452;28;20041;-72
2023/06/24 06:35:45;;;;;;;10.10;6.53;;;;;;;20.07;100.00;102349.75;10432410;28;20037;-72
2023/06/24 06:40:46;;;;;;;10.25;6.65;;;;;;;20.40;100.00;102353.00;10415190;28;20033;-73
2023/06/24 06:45:46;;;;;;;12.45;6.95;;;;;;;20.46;100.00;102352.69;10397197;28;20064;-73
2023/06/24 06:50:47;;;;;;;8.73;6.45;;;;;;;20.70;100.00;102358.53;10415220;28;20069;-72
2023/06/24 06:55:47;;;;;;;10.60;6.82;;;;;;;20.98;100.00;102358.94;10430473;28;20040;-72
2023/06/24 07:00:48;;;;;;;9.57;6.43;;;;;;;21.21;100.00;102354.59;10384967;28;20033;-72
2023/06/24 07:05:48;;;;;;;9.52;5.60;;;;;;;21.65;100.00;102348.13;10394569;28;20030;-71
2023/06/24 07:10:49;;;;;;;8.38;5.78;;;;;;;21.92;100.00;102339.16;10410209;28;20049;-71
2023/06/24 07:15:49;;;;;;;9.25;6.00;;;;;;;22.11;100.00;102335.59;10397895;28;20041;-72
2023/06/24 07:20:52;;;;;;;9.57;6.10;;;;;;;21.99;100.00;102323.94;10390242;28;20042;-72
2023/06/24 07:25:53;;;;;;;11.13;6.60;;;;;;;21.20;100.00;102214.84;10391516;28;20077;-72
2023/06/24 07:30:53;;;;;;;11.32;6.07;;;;;;;22.23;100.00;102333.25;10390635;28;20041;-72
2023/06/24 07:35:54;;;;;;;8.20;5.90;;;;;;;22.46;100.00;102337.19;10395069;28;20276;-73
2023/06/24 07:40:54;;;;;;;9.43;6.30;;;;;;;22.54;100.00;102332.88;10413694;28;20034;-73
2023/06/24 07:45:55;;;;;;;7.30;6.03;;;;;;;22.76;100.00;102344.38;10398574;28;20044;-72
2023/06/24 07:50:55;;;;;;;9.30;6.45;;;;;;;23.21;100.00;102338.41;10380208;28;20037;-72
2023/06/24 07:55:55;;;;;;;8.65;6.80;;;;;;;23.66;100.00;102332.34;10400752;28;20052;-73
2023/06/24 08:00:56;;;;;;;7.50;5.47;;;;;;;23.95;100.00;102338.56;10411153;28;20041;-73
2023/06/24 08:05:56;;;;;;;10.82;6.40;;;;;;;24.05;100.00;102322.66;10420109;28;20030;-72
2023/06/24 08:10:57;;;;;;;14.90;7.35;;;;;;;24.17;100.00;102328.59;10418532;28;20044;-73
2023/06/24 08:15:57;;;;;;;8.05;6.18;;;;;;;24.01;100.00;102313.16;10418421;28;20045;-72
2023/06/24 08:20:58;;;;;;;21.05;6.20;;;;;;;24.02;100.00;102317.63;10433701;28;20064;-72
2023/06/24 08:25:58;;;;;;;9.00;5.28;;;;;;;24.48;100.00;102313.91;10418684;28;20037;-72
2023/06/24 08:30:59;;;;;;;14.07;6.70;;;;;;;24.95;100.00;102309.75;10417327;28;20067;-71
2023/06/24 08:35:59;;;;;;;8.80;5.43;;;;;;;25.02;100.00;102300.03;10419362;28;20041;-72
2023/06/24 08:41:00;;;;;;;8.10;5.90;;;;;;;24.66;100.00;102298.88;10417243;28;20493;-71
2023/06/24 08:46:00;;;;;;;6.80;4.82;;;;;;;24.64;100.00;102295.56;10406229;28;20045;-72
2023/06/24 08:51:01;;;;;;;12.73;5.85;;;;;;;24.89;100.00;102304.56;10374485;28;20659;-72
2023/06/24 08:56:01;;;;;;;7.43;5.28;;;;;;;25.23;100.00;102294.75;10374462;28;20041;-72
2023/06/24 09:01:02;;;;;;;7.40;5.00;;;;;;;25.37;100.00;102287.06;10391670;28;20086;-71
2023/06/24 09:06:02;;;;;;;8.10;4.70;;;;;;;25.49;100.00;102267.56;10393134;28;20100;-71
2023/06/24 09:11:03;;;;;;;5.53;3.75;;;;;;;25.36;100.00;102274.13;10385629;28;20038;-71
2023/06/24 09:16:12;;;;;;;6.15;3.85;;;;;;;25.66;100.00;102278.13;10390130;28;20113;-70
2023/06/24 09:21:13;;;;;;;5.50;3.30;;;;;;;25.93;99.24;102270.66;10373703;28;20038;-71
2023/06/24 09:26:13;;;;;;;8.35;3.80;;;;;;;26.18;99.10;102274.72;10392644;28;20050;-72
2023/06/24 09:31:14;;;;;;;8.55;4.93;;;;;;;26.09;98.08;102274.69;10389995;28;20105;-70
2023/06/24 09:36:14;;;;;;;7.63;4.93;;;;;;;25.92;95.83;102266.16;10393579;28;20088;-70
2023/06/24 09:41:15;;;;;;;5.90;4.22;;;;;;;26.15;94.80;102258.44;10388730;28;20046;-69
2023/06/24 09:46:15;;;;;;;7.38;4.10;;;;;;;26.23;94.01;102259.63;10433421;28;20041;-71
2023/06/24 09:51:16;;;;;;;7.75;3.10;;;;;;;26.52;93.88;102242.06;10452081;28;20044;-71
2023/06/24 09:56:16;;;;;;;6.25;3.97;;;;;;;26.53;90.88;102235.25;10420789;28;20087;-71
2023/06/24 10:01:17;;;;;;;3.92;3.03;;;;;;;26.86;89.63;102238.47;10393698;28;20033;-71
2023/06/24 10:06:17;;;;;;;5.65;3.22;;;;;;;26.99;85.91;102228.16;10419665;28;20386;-72
2023/06/24 10:11:18;;;;;;;3.85;2.63;;;;;;;27.21;85.96;102229.13;10445944;28;20151;-71
2023/06/24 10:16:19;;;;;;;3.80;2.70;;;;;;;27.30;84.13;102232.78;10442072;28;20056;-71
2023/06/24 10:21:20;;;;;;;4.95;2.60;;;;;;;27.26;82.94;102220.47;10445833;28;20038;-75
2023/06/24 10:26:28;;;;;;;7.03;3.22;;;;;;;27.34;82.67;102219.63;10418315;28;20132;-75
2023/06/24 10:31:40;;;;;;;4.90;2.50;;;;;;;27.51;82.67;102222.44;10455351;28;20532;-75
2023/06/24 10:36:41;;;;;;;5.53;3.55;;;;;;;27.64;82.08;102208.38;10454835;28;20033;-76
2023/06/24 10:41:41;;;;;;;7.80;3.15;;;;;;;27.26;79.82;102163.94;10453867;28;20025;-75
2023/06/24 10:46:42;;;;;;;5.18;3.22;;;;;;;27.49;80.03;102213.44;10452178;28;20045;-76
2023/06/24 10:51:42;;;;;;;4.82;2.88;;;;;;;27.61;78.68;102197.75;10453540;28;20033;-76
2023/06/24 10:56:44;;;;;;;6.40;3.05;;;;;;;28.07;77.45;102204.53;10419334;28;20041;-77
2023/06/24 11:01:53;;;;;;;4.75;2.65;;;;;;;28.72;77.86;102188.09;10436556;28;20037;-76
2023/06/24 11:07:00;;;;;;;3.78;2.90;;;;;;;29.14;74.71;102196.53;10428841;28;20086;-77
2023/06/24 11:12:04;;;;;;;3.35;2.45;;;;;;;29.18;73.15;102201.16;10426930;28;20056;-73
2023/06/24 11:17:05;;;;;;;3.08;2.30;;;;;;;28.71;74.90;102183.59;10435173;28;20095;-75
2023/06/24 11:22:06;;;;;;;3.75;2.55;;;;;;;28.27;73.58;102189.56;10443488;28;20097;-73
2023/06/24 11:27:07;;;;;;;4.57;2.58;;;;;;;28.58;76.13;102197.69;10458571;28;20132;-74
2023/06/24 11:32:08;;;;;;;4.18;2.80;;;;;;;28.82;74.90;102187.66;10462447;28;20093;-73
2023/06/24 11:37:12;;;;;;;3.70;2.58;;;;;;;28.99;70.92;102169.66;10461495;28;20140;-75
2023/06/24 11:42:13;;;;;;;4.32;2.15;;;;;;;29.10;71.80;102179.38;10460964;28;20033;-75
2023/06/24 11:47:13;;;;;;;4.35;2.70;;;;;;;28.65;74.47;102180.16;10461064;28;20033;-72
2023/06/24 11:52:14;;;;;;;3.47;2.95;;;;;;;28.74;73.59;102144.06;10459714;28;20033;-74
2023/06/24 11:57:14;;;;;;;5.00;3.53;;;;;;;29.78;71.88;102161.88;10461252;28;20029;-73
2023/06/24 12:02:15;;;;;;;3.38;2.70;;;;;;;29.96;70.14;102153.97;10426262;28;20029;-77
2023/06/24 12:07:15;;;;;;;4.78;2.83;;;;;;;29.94;69.13;102150.66;10459250;28;20049;-76
2023/06/24 12:12:16;;;;;;;3.65;2.47;;;;;;;30.37;67.03;102129.28;10446155;28;20060;-76
2023/06/24 12:17:16;;;;;;;4.30;3.15;;;;;;;31.55;64.98;102134.56;10459096;28;20043;-73
2023/06/24 12:22:17;;;;;;;3.42;2.53;;;;;;;32.23;64.25;102132.53;10458065;28;20041;-74
2023/06/24 12:27:17;;;;;;;4.95;2.90;;;;;;;32.66;61.38;102142.00;10429041;28;20060;-74
2023/06/24 12:32:18;;;;;;;6.05;3.03;;;;;;;31.92;62.07;102139.13;10445505;28;20044;-75
2023/06/24 12:37:18;;;;;;;4.63;2.75;;;;;;;31.76;62.23;102141.97;10458643;28;20037;-76
2023/06/24 12:42:19;;;;;;;3.08;2.55;;;;;;;31.32;63.42;102142.09;10458102;28;20573;-76
2023/06/24 12:47:20;;;;;;;4.65;2.67;;;;;;;31.02;63.97;102136.81;10456717;28;20041;-79
2023/06/24 12:52:20;;;;;;;3.25;2.40;;;;;;;31.56;62.39;102135.38;10459259;28;20112;-81
2023/06/24 12:57:21;;;;;;;4.20;2.85;;;;;;;31.72;60.52;102124.00;10458550;28;20517;-72
2023/06/24 13:02:21;;;;;;;3.67;2.53;;;;;;;32.20;59.59;102121.84;10458752;28;20535;-78
2023/06/24 13:07:22;;;;;;;4.05;2.35;;;;;;;31.36;60.08;102123.91;10456666;28;20037;-84
2023/06/24 13:12:22;;;;;;;3.97;2.92;;;;;;;30.45;62.04;102135.16;10456421;28;20494;-69
2023/06/24 13:17:23;;;;;;;4.95;2.50;;;;;;;29.73;63.81;102144.28;10457723;28;20497;-69
2023/06/24 13:22:23;;;;;;;3.83;2.63;;;;;;;29.12;66.00;102143.00;10457666;28;22324;-71
2023/06/24 13:27:24;;;;;;;4.65;2.95;;;;;;;29.00;67.46;102145.78;10431351;28;20069;-75
2023/06/24 13:32:24;;;;;;;3.70;2.78;;;;;;;28.69;69.33;102149.97;10453655;28;20489;-73
2023/06/24 13:37:25;;;;;;;3.58;2.80;;;;;;;28.32;70.41;102149.75;10456359;28;20547;-72
2023/06/24 13:42:25;;;;;;;4.00;3.30;;;;;;;28.16;72.25;102160.03;10454151;28;20059;-72
2023/06/24 13:47:26;;;;;;;6.47;2.88;;;;;;;27.81;71.97;102157.38;10456291;28;20037;-79
2023/06/24 13:52:26;;;;;;;5.70;3.10;;;;;;;27.45;75.55;102157.88;10455456;28;20028;-70
2023/06/24 13:57:27;;;;;;;5.53;2.95;;;;;;;27.29;77.97;102177.41;10471252;28;20048;-74
2023/06/24 14:02:27;;;;;;;11.75;6.20;;;;;;;26.80;90.78;102193.75;10454159;28;20086;-71
2023/06/24 14:07:29;;;;;;;11.82;7.15;;;;;;;25.96;100.00;102208.75;10455092;28;20037;-69
2023/06/24 14:12:29;;;;;;;11.10;7.07;;;;;;;25.63;100.00;102211.06;10436695;28;20041;-68
2023/06/24 14:17:30;;;;;;;9.38;6.22;;;;;;;25.63;100.00;102218.69;10456019;28;20037;-79
2023/06/24 14:22:30;;;;;;;8.27;6.82;;;;;;;25.61;100.00;102219.03;10470502;28;20037;-75
2023/06/24 14:27:31;;;;;;;9.40;5.88;;;;;;;25.83;100.00;102201.19;10455470;28;20049;-71
2023/06/24 14:32:31;;;;;;;8.65;5.32;;;;;;;26.01;100.00;102207.78;10464376;28;20044;-72
2023/06/24 14:37:31;;;;;;;9.07;5.00;;;;;;;26.02;100.00;102200.13;10412375;28;20038;-71
2023/06/24 14:42:32;;;;;;;10.20;5.43;;;;;;;26.81;100.00;102203.88;10413787;28;20116;-73
2023/06/24 14:47:32;;;;;;;9.63;5.63;;;;;;;28.61;100.00;102190.53;10413969;28;20048;-74
2023/06/24 14:52:33;;;;;;;8.65;5.18;;;;;;;29.66;98.23;102172.38;10413031;28;20033;-75
2023/06/24 14:57:34;;;;;;;10.68;6.32;;;;;;;29.22;95.04;102174.94;10414723;28;20037;-80
2023/06/24 15:02:35;;;;;;;8.43;4.85;;;;;;;29.07;97.38;102180.06;10414812;28;20577;-72
2023/06/24 15:07:37;;;;;;;7.78;4.00;;;;;;;30.15;90.96;102155.34;10448602;28;20045;-73
2023/06/24 15:12:39;;;;;;;5.32;4.15;;;;;;;30.68;88.80;102156.16;10451712;28;20568;-73
2023/06/24 15:17:44;;;;;;;6.43;4.28;;;;;;;30.23;86.89;102140.19;10467945;28;20041;-73
2023/06/24 15:22:45;;;;;;;7.35;4.63;;;;;;;30.90;80.94;102139.72;10440072;28;20049;-72
2023/06/24 15:27:45;;;;;;;8.25;3.53;;;;;;;31.52;79.31;102138.13;10453249;28;20072;-73
2023/06/24 15:32:46;;;;;;;4.57;3.38;;;;;;;31.70;76.03;102130.03;10453160;28;20063;-74
2023/06/24 15:37:46;;;;;;;4.38;3.15;;;;;;;32.12;74.27;102137.13;10468189;28;20036;-74
2023/06/24 15:42:47;;;;;;;4.45;2.65;;;;;;;32.81;69.91;102136.59;10452869;28;20033;-73
2023/06/24 15:47:47;;;;;;;4.85;3.08;;;;;;;32.79;68.70;102136.16;10468099;28;20033;-73
2023/06/24 15:52:47;;;;;;;3.92;2.85;;;;;;;32.43;68.04;102127.63;10454178;28;20033;-71
2023/06/24 15:57:48;;;;;;;4.70;2.70;;;;;;;33.08;66.60;102126.94;10456377;28;20036;-73
2023/06/24 16:02:48;;;;;;;3.47;2.50;;;;;;;32.98;66.70;102125.50;10459945;28;20446;-73
2023/06/24 16:07:49;;;;;;;3.95;2.92;;;;;;;31.62;68.21;102076.97;10459996;28;20048;-73
2023/06/24 16:12:49;;;;;;;3.70;2.30;;;;;;;32.02;67.17;102120.63;10460291;28;20103;-73
2023/06/24 16:17:50;;;;;;;2.67;2.20;;;;;;;32.81;65.37;102111.75;10460204;28;20136;-73
2023/06/24 16:22:50;;;;;;;3.17;2.33;;;;;;;32.86;65.38;102131.38;10460147;28;20048;-73
2023/06/24 16:27:51;;;;;;;3.28;2.47;;;;;;;30.65;66.23;102059.41;10459843;28;20069;-73
2023/06/24 16:32:51;;;;;;;3.72;2.50;;;;;;;30.97;66.81;102135.06;10459100;28;20102;-73
2023/06/24 16:37:52;;;;;;;3.20;2.90;;;;;;;31.20;65.24;102136.47;10458672;28;20041;-73
2023/06/24 16:42:52;;;;;;;8.50;3.90;;;;;;;31.38;68.23;102134.94;10454968;28;20045;-73
2023/06/24 16:47:53;;;;;;;4.25;2.92;;;;;;;30.99;66.98;102137.56;10457531;28;20033;-72
2023/06/24 16:52:53;;;;;;;5.03;3.30;;;;;;;29.92;72.17;102149.34;10459665;28;20033;-72
2023/06/24 16:57:53;;;;;;;6.00;3.47;;;;;;;28.50;74.72;102152.44;10458195;28;20481;-72
2023/06/24 17:02:54;;;;;;;6.88;2.85;;;;;;;27.84;78.14;102156.69;10457957;28;20026;-73
2023/06/24 17:07:54;;;;;;;8.18;3.90;;;;;;;27.40;80.58;102158.06;10457402;28;20033;-72
2023/06/24 17:12:55;;;;;;;10.30;3.65;;;;;;;27.12;83.61;102159.31;10458069;28;20044;-71
2023/06/24 17:17:55;;;;;;;5.15;3.35;;;;;;;27.07;85.46;102155.81;10458238;28;20041;-72
2023/06/24 17:22:57;;;;;;;7.25;3.35;;;;;;;26.90;86.08;102153.88;10456343;28;20040;-72
2023/06/24 17:27:57;;;;;;;6.53;4.03;;;;;;;26.51;89.73;102161.34;10437787;28;20052;-72
2023/06/24 17:32:57;;;;;;;6.57;4.03;;;;;;;25.94;90.83;102160.28;10456092;28;20041;-72
2023/06/24 17:37:58;;;;;;;4.93;3.10;;;;;;;25.54;92.78;102165.09;10471625;28;20059;-71
2023/06/24 17:42:58;;;;;;;9.48;3.58;;;;;;;25.28;95.27;102164.97;10454758;28;20044;-70
2023/06/24 17:47:59;;;;;;;6.22;3.22;;;;;;;24.98;96.39;102173.06;10456179;28;20045;-71
2023/06/24 17:53:00;;;;;;;4.90;2.65;;;;;;;24.73;95.64;102172.53;10468710;28;20095;-70
2023/06/24 17:58:02;;;;;;;10.23;3.70;;;;;;;24.46;99.19;102161.38;10442217;28;20041;-70
2023/06/24 18:03:03;;;;;;;5.25;3.08;;;;;;;24.27;100.00;102170.81;10449047;28;20036;-70
2023/06/24 18:08:03;;;;;;;5.82;3.10;;;;;;;24.26;100.00;102166.31;10453685;28;20561;-71
2023/06/24 18:13:04;;;;;;;7.35;4.35;;;;;;;24.11;100.00;102172.28;10436095;28;20036;-70
2023/06/24 18:18:04;;;;;;;6.30;2.78;;;;;;;23.82;100.00;102162.22;10455233;28;20426;-71
2023/06/24 18:23:05;;;;;;;4.60;2.60;;;;;;;23.76;100.00;102166.25;10431798;28;20086;-71
2023/06/24 18:28:05;;;;;;;4.82;3.33;;;;;;;23.66;100.00;102175.72;10453608;28;20111;-68
2023/06/24 18:33:06;;;;;;;7.22;3.40;;;;;;;23.47;100.00;102170.19;10454358;28;20083;-71
2023/06/24 18:38:06;;;;;;;3.53;2.72;;;;;;;23.40;100.00;102183.84;10451753;28;20037;-72
2023/06/24 18:43:07;;;;;;;5.95;3.05;;;;;;;23.28;100.00;102169.44;10451734;28;20029;-71
2023/06/24 18:48:07;;;;;;;5.47;3.28;;;;;;;23.16;100.00;102173.56;10452974;28;20044;-70
2023/06/24 18:53:10;;;;;;;5.55;3.33;;;;;;;23.01;100.00;102173.84;10442682;28;21323;-71
2023/06/24 18:58:11;;;;;;;4.63;3.20;;;;;;;22.84;100.00;102165.13;10434441;28;20609;-71
2023/06/24 19:03:11;;;;;;;6.53;3.67;;;;;;;22.71;100.00;102167.56;10451152;28;20044;-71
2023/06/24 19:08:12;;;;;;;4.40;3.30;;;;;;;22.62;100.00;102166.59;10450573;28;20041;-70
2023/06/24 19:13:12;;;;;;;3.42;2.60;;;;;;;22.48;100.00;102160.09;10452827;28;20106;-72
2023/06/24 19:18:13;;;;;;;6.50;3.45;;;;;;;22.33;100.00;102159.19;10435502;28;20481;-71
2023/06/24 19:23:13;;;;;;;4.65;3.10;;;;;;;22.17;100.00;102164.13;10428306;28;20072;-71
2023/06/24 19:28:14;;;;;;;5.60;3.72;;;;;;;21.98;100.00;102165.28;10389443;28;20045;-71
2023/06/24 19:33:14;;;;;;;4.22;3.53;;;;;;;21.89;100.00;102168.75;10392831;28;20045;-72
2023/06/24 19:38:15;;;;;;;4.50;3.47;;;;;;;21.75;100.00;102165.81;10411425;28;20057;-70
2023/06/24 19:43:15;;;;;;;5.07;3.70;;;;;;;21.56;100.00;102170.53;10395258;28;20034;-68
2023/06/24 19:48:18;;;;;;;5.05;3.60;;;;;;;21.38;100.00;102163.69;10394114;28;20044;-67
2023/06/24 19:53:19;;;;;;;6.43;4.30;;;;;;;21.25;100.00;102173.63;10395348;28;20037;-67
2023/06/24 19:58:19;;;;;;;4.60;3.72;;;;;;;21.16;100.00;102165.00;10395363;28;20053;-68
2023/06/24 20:03:20;;;;;;;4.57;3.10;;;;;;;21.06;100.00;102169.88;10393652;28;20048;-70
2023/06/24 20:08:21;;;;;;;6.72;3.65;;;;;;;20.99;100.00;102173.03;10395692;28;20045;-68
2023/06/24 20:13:21;;;;;;;5.95;3.28;;;;;;;20.89;100.00;102175.91;10375614;28;20033;-67
2023/06/24 20:18:23;;;;;;;4.45;3.33;;;;;;;20.71;100.00;102171.84;10394176;28;20042;-67
2023/06/24 20:23:24;;;;;;;6.55;3.40;;;;;;;20.62;100.00;102166.03;10393722;28;20033;-67
2023/06/24 20:28:24;;;;;;;6.80;4.28;;;;;;;20.53;100.00;102170.56;10403006;28;20054;-66
2023/06/24 20:33:27;;;;;;;7.35;3.53;;;;;;;20.46;100.00;102167.25;10394451;28;20049;-68
2023/06/24 20:38:27;;;;;;;6.82;4.30;;;;;;;20.40;100.00;102168.41;10395217;28;20124;-68
2023/06/24 20:43:28;;;;;;;5.15;3.47;;;;;;;20.21;100.00;102155.09;10392721;28;20402;-68
2023/06/24 20:48:29;;;;;;;6.78;4.13;;;;;;;20.22;100.00;102164.34;10408721;28;20133;-69
2023/06/24 20:53:30;;;;;;;9.63;4.38;;;;;;;20.15;100.00;102167.44;10393162;28;20068;-68
2023/06/24 20:58:31;;;;;;;10.13;4.47;;;;;;;20.04;100.00;102175.03;10394223;28;20440;-70
2023/06/24 21:03:32;;;;;;;7.50;3.90;;;;;;;19.89;100.00;102175.94;10391532;28;20120;-70
2023/06/24 21:08:32;;;;;;;8.30;4.82;;;;;;;19.74;100.00;102170.41;10393747;28;20038;-67
2023/06/24 21:13:33;;;;;;;7.57;4.28;;;;;;;19.66;100.00;102173.78;10392702;28;20068;-68
2023/06/24 21:18:33;;;;;;;8.82;4.85;;;;;;;19.51;100.00;102169.91;10392589;28;20101;-70
2023/06/24 21:23:34;;;;;;;8.10;5.30;;;;;;;19.06;100.00;102123.34;10392278;28;20417;-69
2023/06/24 21:28:34;;;;;;;7.15;4.88;;;;;;;19.28;100.00;102171.34;10388246;28;20057;-69
2023/06/24 21:33:36;;;;;;;8.15;4.32;;;;;;;19.19;100.00;102172.22;10391459;28;20057;-69
2023/06/24 21:38:37;;;;;;;8.00;4.75;;;;;;;19.06;100.00;102163.28;10396630;28;20038;-70
2023/06/24 21:43:37;;;;;;;9.20;5.40;;;;;;;18.98;100.00;102172.22;10389993;28;20115;-68
2023/06/24 21:48:38;;;;;;;8.55;5.28;;;;;;;18.87;100.00;102156.56;10392481;28;21163;-69
2023/06/24 21:53:38;;;;;;;9.05;6.32;;;;;;;18.82;100.00;102162.19;10390102;28;20042;-69
2023/06/24 21:58:40;;;;;;;8.38;6.45;;;;;;;18.76;100.00;102175.25;10390031;28;20064;-70
2023/06/24 22:03:43;;;;;;;10.55;6.53;;;;;;;18.56;100.00;102145.38;10389140;28;20127;-69
2023/06/24 22:08:44;;;;;;;10.77;6.63;;;;;;;18.62;100.00;102163.78;10388018;28;20041;-69
2023/06/24 22:13:44;;;;;;;10.05;5.90;;;;;;;18.60;100.00;102166.00;10383398;28;20053;-69
2023/06/24 22:18:45;;;;;;;11.65;6.72;;;;;;;18.53;100.00;102166.28;10388373;28;20049;-69
2023/06/24 22:23:45;;;;;;;10.73;6.70;;;;;;;18.47;100.00;102164.59;10390042;28;20037;-69
2023/06/24 22:28:46;;;;;;;11.13;6.85;;;;;;;18.41;100.00;102160.13;10386780;28;20065;-69
2023/06/24 22:33:46;;;;;;;11.00;7.55;;;;;;;18.35;100.00;102159.31;10417039;28;20067;-69
2023/06/24 22:38:47;;;;;;;10.85;7.13;;;;;;;18.25;100.00;102153.72;10414594;28;20049;-70
2023/06/24 22:43:47;;;;;;;9.77;6.97;;;;;;;18.21;100.00;102163.75;10444771;28;20117;-69